sensor_id;sensor_type;location;lat;lon;timestamp;P1;durP1;ratioP1;P2;durP2;ratioP2
15466;SDS011;7834;49.452;11.056;2023-05-18T00:01:11;7.97;;;3.38;;
15466;SDS011;7834;49.452;11.056;2023-05-18T00:03:38;7.15;;;3.40;;
15466;SDS011;7834;49.452;11.056;2023-05-18T00:06:05;8.40;;;3.65;;
15466;SDS011;7834;49.452;11.056;2023-05-18T00:08:32;8.05;;;3.70;;
15466;SDS011;7834;49.452;11.056;2023-05-18T00:10:58;7.93;;;3.40;;
15466;SDS011;7834;49.452;11.056;2023-05-18T00:13:24;9.27;;;3.20;;
15466;SDS011;7834;49.452;11.056;2023-05-18T00:15:50;10.60;;;3.50;;
15466;SDS011;7834;49.452;11.056;2023-05-18T00:18:16;9.63;;;3.65;;
15466;SDS011;7834;49.452;11.056;2023-05-18T00:20:42;8.45;;;3.80;;
15466;SDS011;7834;49.452;11.056;2023-05-18T00:23:08;8.52;;;3.70;;
15466;SDS011;7834;49.452;11.056;2023-05-18T00:25:40;9.43;;;3.92;;
15466;SDS011;7834;49.452;11.056;2023-05-18T00:28:06;9.75;;;3.60;;
15466;SDS011;7834;49.452;11.056;2023-05-18T00:30:33;9.20;;;3.67;;
15466;SDS011;7834;49.452;11.056;2023-05-18T00:32:59;7.35;;;3.38;;
15466;SDS011;7834;49.452;11.056;2023-05-18T00:35:25;8.48;;;3.40;;
15466;SDS011;7834;49.452;11.056;2023-05-18T00:37:51;7.95;;;3.60;;
15466;SDS011;7834;49.452;11.056;2023-05-18T00:40:17;8.95;;;3.70;;
15466;SDS011;7834;49.452;11.056;2023-05-18T00:42:43;10.20;;;3.75;;
15466;SDS011;7834;49.452;11.056;2023-05-18T00:45:10;11.43;;;4.10;;
15466;SDS011;7834;49.452;11.056;2023-05-18T00:47:36;10.95;;;4.00;;
15466;SDS011;7834;49.452;11.056;2023-05-18T00:50:02;10.75;;;3.95;;
15466;SDS011;7834;49.452;11.056;2023-05-18T00:52:28;9.80;;;4.20;;
15466;SDS011;7834;49.452;11.056;2023-05-18T00:54:56;7.07;;;3.70;;
15466;SDS011;7834;49.452;11.056;2023-05-18T00:57:23;9.18;;;3.83;;
15466;SDS011;7834;49.452;11.056;2023-05-18T00:59:50;10.43;;;4.40;;
15466;SDS011;7834;49.452;11.056;2023-05-18T01:02:15;9.43;;;4.13;;
15466;SDS011;7834;49.452;11.056;2023-05-18T01:04:42;11.90;;;4.50;;
15466;SDS011;7834;49.452;11.056;2023-05-18T01:07:08;9.23;;;4.20;;
15466;SDS011;7834;49.452;11.056;2023-05-18T01:09:35;10.30;;;4.20;;
15466;SDS011;7834;49.452;11.056;2023-05-18T01:14:53;12.25;;;4.10;;
15466;SDS011;7834;49.452;11.056;2023-05-18T01:17:33;9.35;;;4.43;;
15466;SDS011;7834;49.452;11.056;2023-05-18T01:27:47;10.38;;;4.70;;
15466;SDS011;7834;49.452;11.056;2023-05-18T01:30:15;8.45;;;4.40;;
15466;SDS011;7834;49.452;11.056;2023-05-18T01:32:42;11.07;;;4.82;;
15466;SDS011;7834;49.452;11.056;2023-05-18T01:35:10;10.83;;;4.73;;
15466;SDS011;7834;49.452;11.056;2023-05-18T01:37:36;11.90;;;4.90;;
15466;SDS011;7834;49.452;11.056;2023-05-18T01:40:02;9.98;;;4.63;;
15466;SDS011;7834;49.452;11.056;2023-05-18T01:42:29;9.00;;;4.60;;
15466;SDS011;7834;49.452;11.056;2023-05-18T01:44:57;12.38;;;4.55;;
15466;SDS011;7834;49.452;11.056;2023-05-18T01:47:26;11.68;;;5.25;;
15466;SDS011;7834;49.452;11.056;2023-05-18T01:50:02;8.48;;;4.60;;
15466;SDS011;7834;49.452;11.056;2023-05-18T01:52:31;12.02;;;4.70;;
15466;SDS011;7834;49.452;11.056;2023-05-18T01:54:58;11.32;;;5.18;;
15466;SDS011;7834;49.452;11.056;2023-05-18T01:57:26;8.57;;;4.70;;
15466;SDS011;7834;49.452;11.056;2023-05-18T01:59:55;11.98;;;4.85;;
15466;SDS011;7834;49.452;11.056;2023-05-18T02:02:24;10.00;;;4.80;;
15466;SDS011;7834;49.452;11.056;2023-05-18T02:04:50;9.85;;;4.70;;
15466;SDS011;7834;49.452;11.056;2023-05-18T02:07:16;12.20;;;4.65;;
15466;SDS011;7834;49.452;11.056;2023-05-18T02:09:42;8.77;;;4.50;;
15466;SDS011;7834;49.452;11.056;2023-05-18T02:12:09;13.27;;;4.70;;
15466;SDS011;7834;49.452;11.056;2023-05-18T02:14:35;10.00;;;4.90;;
15466;SDS011;7834;49.452;11.056;2023-05-18T02:17:01;9.77;;;4.70;;
15466;SDS011;7834;49.452;11.056;2023-05-18T02:19:27;9.93;;;4.87;;
15466;SDS011;7834;49.452;11.056;2023-05-18T02:21:55;10.00;;;4.68;;
15466;SDS011;7834;49.452;11.056;2023-05-18T02:24:21;10.07;;;4.47;;
15466;SDS011;7834;49.452;11.056;2023-05-18T02:26:49;10.93;;;4.40;;
15466;SDS011;7834;49.452;11.056;2023-05-18T02:29:15;9.98;;;4.60;;
15466;SDS011;7834;49.452;11.056;2023-05-18T02:31:41;9.68;;;4.55;;
15466;SDS011;7834;49.452;11.056;2023-05-18T02:34:07;11.10;;;4.75;;
15466;SDS011;7834;49.452;11.056;2023-05-18T02:36:34;12.13;;;4.68;;
15466;SDS011;7834;49.452;11.056;2023-05-18T02:39:06;11.70;;;4.25;;
15466;SDS011;7834;49.452;11.056;2023-05-18T02:41:33;10.07;;;4.40;;
15466;SDS011;7834;49.452;11.056;2023-05-18T02:43:59;10.07;;;4.38;;
15466;SDS011;7834;49.452;11.056;2023-05-18T02:46:28;8.93;;;4.13;;
15466;SDS011;7834;49.452;11.056;2023-05-18T02:48:54;11.18;;;4.40;;
15466;SDS011;7834;49.452;11.056;2023-05-18T02:51:20;10.43;;;4.70;;
15466;SDS011;7834;49.452;11.056;2023-05-18T02:53:47;10.80;;;4.72;;
15466;SDS011;7834;49.452;11.056;2023-05-18T02:56:13;11.07;;;4.38;;
15466;SDS011;7834;49.452;11.056;2023-05-18T02:58:39;11.10;;;4.43;;
15466;SDS011;7834;49.452;11.056;2023-05-18T03:01:07;9.25;;;4.40;;
15466;SDS011;7834;49.452;11.056;2023-05-18T03:03:34;10.37;;;4.33;;
15466;SDS011;7834;49.452;11.056;2023-05-18T03:06:00;11.90;;;4.40;;
15466;SDS011;7834;49.452;11.056;2023-05-18T03:08:30;11.73;;;4.72;;
15466;SDS011;7834;49.452;11.056;2023-05-18T03:10:56;10.38;;;4.45;;
15466;SDS011;7834;49.452;11.056;2023-05-18T03:13:23;10.23;;;4.53;;
15466;SDS011;7834;49.452;11.056;2023-05-18T03:15:49;8.82;;;4.20;;
15466;SDS011;7834;49.452;11.056;2023-05-18T03:18:16;10.23;;;4.68;;
15466;SDS011;7834;49.452;11.056;2023-05-18T03:20:43;10.55;;;4.68;;
15466;SDS011;7834;49.452;11.056;2023-05-18T03:23:09;10.15;;;4.65;;
15466;SDS011;7834;49.452;11.056;2023-05-18T03:25:35;9.95;;;4.43;;
15466;SDS011;7834;49.452;11.056;2023-05-18T03:28:04;6.50;;;3.90;;
15466;SDS011;7834;49.452;11.056;2023-05-18T03:30:31;8.50;;;4.30;;
15466;SDS011;7834;49.452;11.056;2023-05-18T03:32:57;8.95;;;4.45;;
15466;SDS011;7834;49.452;11.056;2023-05-18T03:35:24;11.43;;;4.87;;
15466;SDS011;7834;49.452;11.056;2023-05-18T03:37:50;7.70;;;4.20;;
15466;SDS011;7834;49.452;11.056;2023-05-18T03:40:16;7.93;;;4.13;;
15466;SDS011;7834;49.452;11.056;2023-05-18T03:42:42;8.93;;;4.25;;
15466;SDS011;7834;49.452;11.056;2023-05-18T03:45:09;12.60;;;4.57;;
15466;SDS011;7834;49.452;11.056;2023-05-18T03:47:35;7.82;;;4.38;;
15466;SDS011;7834;49.452;11.056;2023-05-18T03:50:02;9.55;;;4.43;;
15466;SDS011;7834;49.452;11.056;2023-05-18T03:52:28;9.50;;;4.72;;
15466;SDS011;7834;49.452;11.056;2023-05-18T03:54:58;8.88;;;4.35;;
15466;SDS011;7834;49.452;11.056;2023-05-18T03:57:25;8.27;;;4.30;;
15466;SDS011;7834;49.452;11.056;2023-05-18T03:59:52;9.52;;;4.40;;
15466;SDS011;7834;49.452;11.056;2023-05-18T04:02:18;6.80;;;4.20;;
15466;SDS011;7834;49.452;11.056;2023-05-18T04:04:44;10.73;;;4.85;;
15466;SDS011;7834;49.452;11.056;2023-05-18T04:07:14;9.95;;;5.35;;
15466;SDS011;7834;49.452;11.056;2023-05-18T04:09:46;10.88;;;5.03;;
15466;SDS011;7834;49.452;11.056;2023-05-18T04:12:12;10.77;;;4.97;;
15466;SDS011;7834;49.452;11.056;2023-05-18T04:14:38;11.73;;;5.50;;
15466;SDS011;7834;49.452;11.056;2023-05-18T04:17:07;9.43;;;4.80;;
15466;SDS011;7834;49.452;11.056;2023-05-18T04:19:34;9.07;;;4.93;;
15466;SDS011;7834;49.452;11.056;2023-05-18T04:22:00;11.20;;;5.07;;
15466;SDS011;7834;49.452;11.056;2023-05-18T04:24:30;9.77;;;5.07;;
15466;SDS011;7834;49.452;11.056;2023-05-18T04:26:59;11.30;;;5.00;;
15466;SDS011;7834;49.452;11.056;2023-05-18T04:29:26;11.45;;;4.97;;
15466;SDS011;7834;49.452;11.056;2023-05-18T04:31:53;10.15;;;5.03;;
15466;SDS011;7834;49.452;11.056;2023-05-18T04:34:25;10.05;;;5.18;;
15466;SDS011;7834;49.452;11.056;2023-05-18T04:36:51;8.20;;;4.80;;
15466;SDS011;7834;49.452;11.056;2023-05-18T04:39:22;10.13;;;5.18;;
15466;SDS011;7834;49.452;11.056;2023-05-18T04:41:49;9.60;;;4.82;;
15466;SDS011;7834;49.452;11.056;2023-05-18T04:44:24;9.48;;;4.50;;
15466;SDS011;7834;49.452;11.056;2023-05-18T04:46:51;9.55;;;4.93;;
15466;SDS011;7834;49.452;11.056;2023-05-18T04:49:17;9.48;;;4.72;;
15466;SDS011;7834;49.452;11.056;2023-05-18T04:51:49;8.80;;;5.10;;
15466;SDS011;7834;49.452;11.056;2023-05-18T04:54:20;8.15;;;4.60;;
15466;SDS011;7834;49.452;11.056;2023-05-18T04:56:47;7.90;;;4.50;;
15466;SDS011;7834;49.452;11.056;2023-05-18T04:59:13;10.60;;;4.53;;
15466;SDS011;7834;49.452;11.056;2023-05-18T05:01:39;7.68;;;4.65;;
15466;SDS011;7834;49.452;11.056;2023-05-18T05:04:05;9.98;;;4.65;;
15466;SDS011;7834;49.452;11.056;2023-05-18T05:06:31;6.97;;;4.35;;
15466;SDS011;7834;49.452;11.056;2023-05-18T05:08:57;10.87;;;4.70;;
15466;SDS011;7834;49.452;11.056;2023-05-18T05:11:23;12.77;;;4.73;;
15466;SDS011;7834;49.452;11.056;2023-05-18T05:13:49;10.90;;;4.70;;
15466;SDS011;7834;49.452;11.056;2023-05-18T05:16:15;9.15;;;4.18;;
15466;SDS011;7834;49.452;11.056;2023-05-18T05:18:41;8.57;;;4.47;;
15466;SDS011;7834;49.452;11.056;2023-05-18T05:21:08;10.27;;;4.60;;
15466;SDS011;7834;49.452;11.056;2023-05-18T05:23:34;9.95;;;4.82;;
15466;SDS011;7834;49.452;11.056;2023-05-18T05:26:00;9.27;;;4.57;;
15466;SDS011;7834;49.452;11.056;2023-05-18T05:28:26;8.77;;;4.28;;
15466;SDS011;7834;49.452;11.056;2023-05-18T05:30:52;10.32;;;4.70;;
15466;SDS011;7834;49.452;11.056;2023-05-18T05:33:18;8.13;;;4.07;;
15466;SDS011;7834;49.452;11.056;2023-05-18T05:35:44;9.63;;;4.20;;
15466;SDS011;7834;49.452;11.056;2023-05-18T05:38:10;9.63;;;3.92;;
15466;SDS011;7834;49.452;11.056;2023-05-18T05:40:36;6.97;;;3.60;;
15466;SDS011;7834;49.452;11.056;2023-05-18T05:43:03;9.13;;;3.43;;
15466;SDS011;7834;49.452;11.056;2023-05-18T05:45:30;9.25;;;3.78;;
15466;SDS011;7834;49.452;11.056;2023-05-18T05:47:56;9.32;;;4.57;;
15466;SDS011;7834;49.452;11.056;2023-05-18T05:50:22;8.13;;;3.35;;
15466;SDS011;7834;49.452;11.056;2023-05-18T05:52:48;9.30;;;3.63;;
15466;SDS011;7834;49.452;11.056;2023-05-18T05:55:14;8.90;;;3.38;;
15466;SDS011;7834;49.452;11.056;2023-05-18T05:57:40;9.20;;;3.28;;
15466;SDS011;7834;49.452;11.056;2023-05-18T06:00:10;9.57;;;3.03;;
15466;SDS011;7834;49.452;11.056;2023-05-18T06:02:37;7.18;;;3.28;;
15466;SDS011;7834;49.452;11.056;2023-05-18T06:05:03;7.93;;;3.25;;
15466;SDS011;7834;49.452;11.056;2023-05-18T06:07:30;9.75;;;3.20;;
15466;SDS011;7834;49.452;11.056;2023-05-18T06:09:56;8.75;;;2.97;;
15466;SDS011;7834;49.452;11.056;2023-05-18T06:12:22;7.38;;;3.10;;
15466;SDS011;7834;49.452;11.056;2023-05-18T06:14:48;6.53;;;2.93;;
15466;SDS011;7834;49.452;11.056;2023-05-18T06:17:16;7.88;;;3.25;;
15466;SDS011;7834;49.452;11.056;2023-05-18T06:19:42;8.45;;;3.20;;
15466;SDS011;7834;49.452;11.056;2023-05-18T06:22:08;8.48;;;3.00;;
15466;SDS011;7834;49.452;11.056;2023-05-18T06:24:35;7.03;;;2.80;;
15466;SDS011;7834;49.452;11.056;2023-05-18T06:27:01;5.45;;;2.80;;
15466;SDS011;7834;49.452;11.056;2023-05-18T06:29:27;8.23;;;3.07;;
15466;SDS011;7834;49.452;11.056;2023-05-18T06:31:54;9.00;;;3.10;;
15466;SDS011;7834;49.452;11.056;2023-05-18T06:34:20;7.35;;;3.00;;
15466;SDS011;7834;49.452;11.056;2023-05-18T06:36:47;9.75;;;3.00;;
15466;SDS011;7834;49.452;11.056;2023-05-18T06:39:13;8.93;;;3.00;;
15466;SDS011;7834;49.452;11.056;2023-05-18T06:41:39;7.30;;;2.80;;
15466;SDS011;7834;49.452;11.056;2023-05-18T06:44:05;7.75;;;3.10;;
15466;SDS011;7834;49.452;11.056;2023-05-18T06:46:31;6.90;;;2.70;;
15466;SDS011;7834;49.452;11.056;2023-05-18T06:48:57;7.75;;;2.90;;
15466;SDS011;7834;49.452;11.056;2023-05-18T06:51:23;6.10;;;3.00;;
15466;SDS011;7834;49.452;11.056;2023-05-18T06:53:49;8.60;;;2.80;;
15466;SDS011;7834;49.452;11.056;2023-05-18T06:56:15;7.30;;;2.83;;
15466;SDS011;7834;49.452;11.056;2023-05-18T06:58:42;8.57;;;3.10;;
15466;SDS011;7834;49.452;11.056;2023-05-18T07:01:09;9.52;;;2.70;;
15466;SDS011;7834;49.452;11.056;2023-05-18T07:03:35;8.63;;;3.05;;
15466;SDS011;7834;49.452;11.056;2023-05-18T07:06:02;7.85;;;2.78;;
15466;SDS011;7834;49.452;11.056;2023-05-18T07:08:28;8.35;;;2.65;;
15466;SDS011;7834;49.452;11.056;2023-05-18T07:10:55;8.80;;;2.80;;
15466;SDS011;7834;49.452;11.056;2023-05-18T07:13:22;8.45;;;2.80;;
15466;SDS011;7834;49.452;11.056;2023-05-18T07:15:48;8.77;;;3.03;;
15466;SDS011;7834;49.452;11.056;2023-05-18T07:18:14;7.45;;;2.80;;
15466;SDS011;7834;49.452;11.056;2023-05-18T07:20:40;8.80;;;2.60;;
15466;SDS011;7834;49.452;11.056;2023-05-18T07:23:06;7.47;;;2.78;;
15466;SDS011;7834;49.452;11.056;2023-05-18T07:25:32;7.20;;;2.78;;
15466;SDS011;7834;49.452;11.056;2023-05-18T07:27:59;7.25;;;2.80;;
15466;SDS011;7834;49.452;11.056;2023-05-18T07:30:25;8.63;;;2.60;;
15466;SDS011;7834;49.452;11.056;2023-05-18T07:32:51;6.53;;;2.65;;
15466;SDS011;7834;49.452;11.056;2023-05-18T07:35:17;7.00;;;2.80;;
15466;SDS011;7834;49.452;11.056;2023-05-18T07:37:44;10.25;;;2.90;;
15466;SDS011;7834;49.452;11.056;2023-05-18T07:40:10;9.57;;;3.00;;
15466;SDS011;7834;49.452;11.056;2023-05-18T07:42:39;7.43;;;2.88;;
15466;SDS011;7834;49.452;11.056;2023-05-18T07:45:06;9.48;;;3.80;;
15466;SDS011;7834;49.452;11.056;2023-05-18T07:47:32;8.38;;;3.15;;
15466;SDS011;7834;49.452;11.056;2023-05-18T07:49:58;8.20;;;2.58;;
15466;SDS011;7834;49.452;11.056;2023-05-18T07:52:24;7.88;;;2.83;;
15466;SDS011;7834;49.452;11.056;2023-05-18T07:54:51;7.82;;;2.90;;
15466;SDS011;7834;49.452;11.056;2023-05-18T07:57:17;9.48;;;3.08;;
15466;SDS011;7834;49.452;11.056;2023-05-18T07:59:45;8.00;;;2.77;;
15466;SDS011;7834;49.452;11.056;2023-05-18T08:02:11;9.20;;;2.70;;
15466;SDS011;7834;49.452;11.056;2023-05-18T08:04:37;8.25;;;2.67;;
15466;SDS011;7834;49.452;11.056;2023-05-18T08:07:03;8.50;;;2.90;;
15466;SDS011;7834;49.452;11.056;2023-05-18T08:09:29;12.32;;;3.08;;
15466;SDS011;7834;49.452;11.056;2023-05-18T08:11:56;7.85;;;2.67;;
15466;SDS011;7834;49.452;11.056;2023-05-18T08:14:22;8.45;;;2.60;;
15466;SDS011;7834;49.452;11.056;2023-05-18T08:16:48;8.32;;;2.78;;
15466;SDS011;7834;49.452;11.056;2023-05-18T08:19:14;7.05;;;2.80;;
15466;SDS011;7834;49.452;11.056;2023-05-18T08:21:40;8.43;;;2.50;;
15466;SDS011;7834;49.452;11.056;2023-05-18T08:24:08;8.35;;;2.90;;
15466;SDS011;7834;49.452;11.056;2023-05-18T08:26:34;6.95;;;2.72;;
15466;SDS011;7834;49.452;11.056;2023-05-18T08:29:00;8.60;;;2.70;;
15466;SDS011;7834;49.452;11.056;2023-05-18T08:31:33;8.47;;;2.70;;
15466;SDS011;7834;49.452;11.056;2023-05-18T08:33:59;12.17;;;2.70;;
15466;SDS011;7834;49.452;11.056;2023-05-18T08:36:29;7.90;;;2.85;;
15466;SDS011;7834;49.452;11.056;2023-05-18T08:38:55;6.95;;;2.50;;
15466;SDS011;7834;49.452;11.056;2023-05-18T08:44:10;7.88;;;2.83;;
15466;SDS011;7834;49.452;11.056;2023-05-18T08:46:40;6.43;;;2.80;;
15466;SDS011;7834;49.452;11.056;2023-05-18T08:49:08;8.60;;;2.83;;
15466;SDS011;7834;49.452;11.056;2023-05-18T08:51:36;9.30;;;2.83;;
15466;SDS011;7834;49.452;11.056;2023-05-18T08:54:02;9.55;;;3.03;;
15466;SDS011;7834;49.452;11.056;2023-05-18T08:56:32;7.95;;;2.63;;
15466;SDS011;7834;49.452;11.056;2023-05-18T08:58:58;8.60;;;3.30;;
15466;SDS011;7834;49.452;11.056;2023-05-18T09:01:28;7.10;;;2.63;;
15466;SDS011;7834;49.452;11.056;2023-05-18T09:03:55;10.37;;;3.00;;
15466;SDS011;7834;49.452;11.056;2023-05-18T09:06:22;7.78;;;2.70;;
15466;SDS011;7834;49.452;11.056;2023-05-18T09:08:53;7.93;;;2.85;;
15466;SDS011;7834;49.452;11.056;2023-05-18T09:11:20;8.32;;;2.90;;
15466;SDS011;7834;49.452;11.056;2023-05-18T09:13:47;7.45;;;2.80;;
15466;SDS011;7834;49.452;11.056;2023-05-18T09:16:17;7.32;;;2.70;;
15466;SDS011;7834;49.452;11.056;2023-05-18T09:18:43;7.93;;;2.80;;
15466;SDS011;7834;49.452;11.056;2023-05-18T09:21:10;9.80;;;2.90;;
15466;SDS011;7834;49.452;11.056;2023-05-18T09:23:39;8.20;;;2.60;;
15466;SDS011;7834;49.452;11.056;2023-05-18T09:26:05;9.88;;;2.95;;
15466;SDS011;7834;49.452;11.056;2023-05-18T09:28:35;7.60;;;2.60;;
15466;SDS011;7834;49.452;11.056;2023-05-18T09:31:02;7.20;;;2.72;;
15466;SDS011;7834;49.452;11.056;2023-05-18T09:33:31;6.70;;;2.92;;
15466;SDS011;7834;49.452;11.056;2023-05-18T09:35:58;7.50;;;2.97;;
15466;SDS011;7834;49.452;11.056;2023-05-18T09:38:24;6.72;;;2.80;;
15466;SDS011;7834;49.452;11.056;2023-05-18T09:40:51;7.07;;;3.00;;
15466;SDS011;7834;49.452;11.056;2023-05-18T09:43:18;7.45;;;2.92;;
15466;SDS011;7834;49.452;11.056;2023-05-18T09:45:45;8.13;;;3.10;;
15466;SDS011;7834;49.452;11.056;2023-05-18T09:48:12;5.50;;;2.70;;
15466;SDS011;7834;49.452;11.056;2023-05-18T09:50:39;9.02;;;2.90;;
15466;SDS011;7834;49.452;11.056;2023-05-18T09:53:06;10.40;;;2.90;;
15466;SDS011;7834;49.452;11.056;2023-05-18T09:55:33;7.38;;;2.80;;
15466;SDS011;7834;49.452;11.056;2023-05-18T09:58:01;7.93;;;2.97;;
15466;SDS011;7834;49.452;11.056;2023-05-18T10:00:28;6.20;;;2.78;;
15466;SDS011;7834;49.452;11.056;2023-05-18T10:02:54;6.93;;;2.97;;
15466;SDS011;7834;49.452;11.056;2023-05-18T10:05:21;7.13;;;2.88;;
15466;SDS011;7834;49.452;11.056;2023-05-18T10:07:49;6.35;;;3.10;;
15466;SDS011;7834;49.452;11.056;2023-05-18T10:10:18;8.77;;;2.80;;
15466;SDS011;7834;49.452;11.056;2023-05-18T10:12:45;8.30;;;3.13;;
15466;SDS011;7834;49.452;11.056;2023-05-18T10:15:15;7.32;;;2.55;;
15466;SDS011;7834;49.452;11.056;2023-05-18T10:17:41;6.93;;;2.67;;
15466;SDS011;7834;49.452;11.056;2023-05-18T10:20:09;7.32;;;2.75;;
15466;SDS011;7834;49.452;11.056;2023-05-18T10:22:35;7.83;;;3.10;;
15466;SDS011;7834;49.452;11.056;2023-05-18T10:25:03;5.55;;;2.80;;
15466;SDS011;7834;49.452;11.056;2023-05-18T10:27:29;7.85;;;3.13;;
15466;SDS011;7834;49.452;11.056;2023-05-18T10:29:58;7.65;;;2.90;;
15466;SDS011;7834;49.452;11.056;2023-05-18T10:32:28;7.28;;;2.85;;
15466;SDS011;7834;49.452;11.056;2023-05-18T10:34:55;10.55;;;2.92;;
15466;SDS011;7834;49.452;11.056;2023-05-18T10:37:21;6.18;;;2.60;;
15466;SDS011;7834;49.452;11.056;2023-05-18T10:39:51;7.05;;;2.95;;
15466;SDS011;7834;49.452;11.056;2023-05-18T10:42:19;8.87;;;3.30;;
15466;SDS011;7834;49.452;11.056;2023-05-18T10:44:46;6.22;;;2.42;;
15466;SDS011;7834;49.452;11.056;2023-05-18T10:47:13;6.82;;;2.90;;
15466;SDS011;7834;49.452;11.056;2023-05-18T10:49:41;6.15;;;2.40;;
15466;SDS011;7834;49.452;11.056;2023-05-18T10:52:07;7.93;;;3.08;;
15466;SDS011;7834;49.452;11.056;2023-05-18T10:54:33;6.55;;;2.90;;
15466;SDS011;7834;49.452;11.056;2023-05-18T10:57:00;6.32;;;2.70;;
15466;SDS011;7834;49.452;11.056;2023-05-18T10:59:26;9.43;;;2.78;;
15466;SDS011;7834;49.452;11.056;2023-05-18T11:01:53;7.43;;;3.15;;
15466;SDS011;7834;49.452;11.056;2023-05-18T11:04:23;6.03;;;2.60;;
15466;SDS011;7834;49.452;11.056;2023-05-18T11:07:09;7.40;;;2.83;;
15466;SDS011;7834;49.452;11.056;2023-05-18T11:09:36;5.82;;;2.72;;
15466;SDS011;7834;49.452;11.056;2023-05-18T11:12:05;5.95;;;2.70;;
15466;SDS011;7834;49.452;11.056;2023-05-18T11:14:35;5.67;;;2.53;;
15466;SDS011;7834;49.452;11.056;2023-05-18T11:27:51;7.63;;;2.60;;
15466;SDS011;7834;49.452;11.056;2023-05-18T11:30:45;6.75;;;3.22;;
15466;SDS011;7834;49.452;11.056;2023-05-18T11:33:12;6.55;;;2.78;;
15466;SDS011;7834;49.452;11.056;2023-05-18T11:35:55;6.43;;;3.00;;
15466;SDS011;7834;49.452;11.056;2023-05-18T11:38:22;8.63;;;2.70;;
15466;SDS011;7834;49.452;11.056;2023-05-18T11:40:48;7.60;;;2.97;;
15466;SDS011;7834;49.452;11.056;2023-05-18T11:43:21;6.07;;;2.70;;
15466;SDS011;7834;49.452;11.056;2023-05-18T11:45:51;6.97;;;2.70;;
15466;SDS011;7834;49.452;11.056;2023-05-18T11:48:19;7.22;;;2.50;;
15466;SDS011;7834;49.452;11.056;2023-05-18T11:50:45;7.50;;;2.67;;
15466;SDS011;7834;49.452;11.056;2023-05-18T11:53:14;5.60;;;2.58;;
15466;SDS011;7834;49.452;11.056;2023-05-18T11:55:43;6.93;;;2.72;;
15466;SDS011;7834;49.452;11.056;2023-05-18T11:58:10;7.10;;;2.80;;
15466;SDS011;7834;49.452;11.056;2023-05-18T12:00:42;6.70;;;2.40;;
15466;SDS011;7834;49.452;11.056;2023-05-18T12:03:10;8.88;;;2.80;;
15466;SDS011;7834;49.452;11.056;2023-05-18T12:05:37;6.65;;;2.50;;
15466;SDS011;7834;49.452;11.056;2023-05-18T12:08:05;5.57;;;2.60;;
15466;SDS011;7834;49.452;11.056;2023-05-18T12:10:32;6.60;;;2.72;;
15466;SDS011;7834;49.452;11.056;2023-05-18T12:13:01;8.30;;;2.90;;
15466;SDS011;7834;49.452;11.056;2023-05-18T12:15:27;7.93;;;2.67;;
15466;SDS011;7834;49.452;11.056;2023-05-18T12:17:53;5.67;;;2.40;;
15466;SDS011;7834;49.452;11.056;2023-05-18T12:20:21;10.30;;;2.65;;
15466;SDS011;7834;49.452;11.056;2023-05-18T12:22:50;5.50;;;2.40;;
15466;SDS011;7834;49.452;11.056;2023-05-18T12:25:20;6.50;;;2.50;;
15466;SDS011;7834;49.452;11.056;2023-05-18T12:27:47;7.88;;;2.80;;
15466;SDS011;7834;49.452;11.056;2023-05-18T12:30:17;6.60;;;2.90;;
15466;SDS011;7834;49.452;11.056;2023-05-18T12:32:50;9.52;;;2.60;;
15466;SDS011;7834;49.452;11.056;2023-05-18T12:35:16;7.50;;;3.65;;
15466;SDS011;7834;49.452;11.056;2023-05-18T12:37:46;5.78;;;2.53;;
15466;SDS011;7834;49.452;11.056;2023-05-18T12:40:12;6.77;;;2.80;;
15466;SDS011;7834;49.452;11.056;2023-05-18T12:42:39;8.05;;;3.40;;
15466;SDS011;7834;49.452;11.056;2023-05-18T12:45:05;5.75;;;2.40;;
15466;SDS011;7834;49.452;11.056;2023-05-18T12:47:36;6.60;;;2.70;;
15466;SDS011;7834;49.452;11.056;2023-05-18T12:50:06;6.88;;;2.67;;
15466;SDS011;7834;49.452;11.056;2023-05-18T12:52:32;5.50;;;2.50;;
15466;SDS011;7834;49.452;11.056;2023-05-18T12:54:58;5.68;;;2.53;;
15466;SDS011;7834;49.452;11.056;2023-05-18T12:57:27;7.53;;;2.78;;
15466;SDS011;7834;49.452;11.056;2023-05-18T12:59:55;8.93;;;3.87;;
15466;SDS011;7834;49.452;11.056;2023-05-18T13:05:03;7.53;;;2.88;;
15466;SDS011;7834;49.452;11.056;2023-05-18T13:07:29;6.72;;;2.92;;
15466;SDS011;7834;49.452;11.056;2023-05-18T13:10:11;6.53;;;2.60;;
15466;SDS011;7834;49.452;11.056;2023-05-18T13:12:40;5.87;;;2.87;;
15466;SDS011;7834;49.452;11.056;2023-05-18T13:15:10;6.57;;;2.50;;
15466;SDS011;7834;49.452;11.056;2023-05-18T13:17:37;6.38;;;2.85;;
15466;SDS011;7834;49.452;11.056;2023-05-18T13:20:10;7.70;;;2.57;;
15466;SDS011;7834;49.452;11.056;2023-05-18T13:22:37;5.18;;;2.45;;
15466;SDS011;7834;49.452;11.056;2023-05-18T13:25:03;5.10;;;2.60;;
15466;SDS011;7834;49.452;11.056;2023-05-18T13:27:30;5.38;;;2.97;;
15466;SDS011;7834;49.452;11.056;2023-05-18T13:29:56;6.13;;;2.60;;
15466;SDS011;7834;49.452;11.056;2023-05-18T13:32:23;6.82;;;2.70;;
15466;SDS011;7834;49.452;11.056;2023-05-18T13:34:49;5.43;;;2.50;;
15466;SDS011;7834;49.452;11.056;2023-05-18T13:37:16;6.07;;;2.70;;
15466;SDS011;7834;49.452;11.056;2023-05-18T13:39:43;6.50;;;2.63;;
15466;SDS011;7834;49.452;11.056;2023-05-18T13:42:09;5.07;;;2.28;;
15466;SDS011;7834;49.452;11.056;2023-05-18T13:44:35;6.35;;;2.50;;
15466;SDS011;7834;49.452;11.056;2023-05-18T13:47:01;5.63;;;2.63;;
15466;SDS011;7834;49.452;11.056;2023-05-18T13:49:28;7.00;;;3.30;;
15466;SDS011;7834;49.452;11.056;2023-05-18T13:51:54;6.15;;;2.83;;
15466;SDS011;7834;49.452;11.056;2023-05-18T13:54:22;9.27;;;3.10;;
15466;SDS011;7834;49.452;11.056;2023-05-18T13:56:48;7.18;;;2.80;;
15466;SDS011;7834;49.452;11.056;2023-05-18T13:59:14;5.68;;;2.55;;
15466;SDS011;7834;49.452;11.056;2023-05-18T14:01:43;5.28;;;2.53;;
15466;SDS011;7834;49.452;11.056;2023-05-18T14:04:11;5.65;;;2.70;;
15466;SDS011;7834;49.452;11.056;2023-05-18T14:06:37;7.43;;;2.53;;
15466;SDS011;7834;49.452;11.056;2023-05-18T14:09:03;5.82;;;2.70;;
15466;SDS011;7834;49.452;11.056;2023-05-18T14:11:29;6.63;;;2.80;;
15466;SDS011;7834;49.452;11.056;2023-05-18T14:14:00;9.65;;;2.95;;
15466;SDS011;7834;49.452;11.056;2023-05-18T14:16:27;6.43;;;2.55;;
15466;SDS011;7834;49.452;11.056;2023-05-18T14:18:53;5.47;;;2.47;;
15466;SDS011;7834;49.452;11.056;2023-05-18T14:21:19;6.13;;;2.80;;
15466;SDS011;7834;49.452;11.056;2023-05-18T14:23:45;5.72;;;2.40;;
15466;SDS011;7834;49.452;11.056;2023-05-18T14:26:12;7.03;;;3.00;;
15466;SDS011;7834;49.452;11.056;2023-05-18T14:28:38;7.38;;;3.17;;
15466;SDS011;7834;49.452;11.056;2023-05-18T14:31:04;5.50;;;2.80;;
15466;SDS011;7834;49.452;11.056;2023-05-18T14:33:30;5.63;;;2.80;;
15466;SDS011;7834;49.452;11.056;2023-05-18T14:35:56;6.35;;;2.65;;
15466;SDS011;7834;49.452;11.056;2023-05-18T14:38:22;6.10;;;2.80;;
15466;SDS011;7834;49.452;11.056;2023-05-18T14:40:51;6.20;;;2.70;;
15466;SDS011;7834;49.452;11.056;2023-05-18T14:43:17;4.75;;;2.80;;
15466;SDS011;7834;49.452;11.056;2023-05-18T14:45:43;7.50;;;2.70;;
15466;SDS011;7834;49.452;11.056;2023-05-18T14:48:09;5.93;;;2.60;;
15466;SDS011;7834;49.452;11.056;2023-05-18T14:50:35;10.73;;;2.60;;
15466;SDS011;7834;49.452;11.056;2023-05-18T14:53:01;5.57;;;2.78;;
15466;SDS011;7834;49.452;11.056;2023-05-18T14:55:27;7.90;;;2.60;;
15466;SDS011;7834;49.452;11.056;2023-05-18T14:57:53;6.57;;;2.45;;
15466;SDS011;7834;49.452;11.056;2023-05-18T15:00:19;5.30;;;2.55;;
15466;SDS011;7834;49.452;11.056;2023-05-18T15:02:45;7.25;;;2.67;;
15466;SDS011;7834;49.452;11.056;2023-05-18T15:05:11;5.20;;;2.53;;
15466;SDS011;7834;49.452;11.056;2023-05-18T15:07:37;6.30;;;2.67;;
15466;SDS011;7834;49.452;11.056;2023-05-18T15:10:04;5.47;;;2.72;;
15466;SDS011;7834;49.452;11.056;2023-05-18T15:12:30;5.87;;;2.60;;